Flight Track Log - Related Links

Times and Time Zones

All times are in EDT time to prevent confusion due to time zone crossing. See the AAL2360 flight status page for this flight to view local times or setup timezone preferences in your user account.

Time Position Orientation Groundspeed Altitude Reporting Facility
EDT Latitude Longitude Course Direction KTS MPH feet Rate Location/Type
Sun 03:47:10 PM 32.9167 -97.0333 North 170 196 1,100  Level Dallas / Fort Worth TRACON
Sun 03:49:25 PM 33.0372 -97.0269 North 217 250 5,900 2,369 Climbing Fort Worth Center
Sun 03:50:25 PM 33.1144 -96.9967 18° North 245 282 8,800 2,100 Climbing Fort Worth Center
Sun 03:51:25 PM 33.1811 -96.9592 25° Northeast 276 318 10,100 1,850 Climbing Fort Worth Center
Sun 03:52:25 PM 33.2811 -96.9089 23° Northeast 330 380 12,500 2,350 Climbing Fort Worth Center
Sun 03:53:25 PM 33.3750 -96.8611 23° Northeast 362 417 14,800 1,850 Climbing Fort Worth Center
Sun 03:54:25 PM 33.4644 -96.8158 23° Northeast 378 435 16,200 2,100 Climbing Fort Worth Center
Sun 03:55:25 PM 33.5747 -96.7453 28° Northeast 390 449 19,000 2,400 Climbing Fort Worth Center
Sun 03:56:25 PM 33.6642 -96.6847 29° Northeast 400 460 21,000 1,750 Climbing Fort Worth Center
Sun 03:57:25 PM 33.7764 -96.6139 28° Northeast 405 466 22,500 1,500 Climbing Fort Worth Center
Sun 03:58:25 PM 33.8803 -96.5478 28° Northeast 411 473 24,000 1,450 Climbing Fort Worth Center
Sun 03:59:25 PM 33.9861 -96.4767 29° Northeast 416 479 25,400 1,400 Climbing Fort Worth Center
Sun 04:00:25 PM 34.0922 -96.4078 28° Northeast 416 479 26,800 1,350 Climbing Fort Worth Center
Sun 04:01:25 PM 34.1917 -96.3239 35° Northeast 421 484 28,100 1,450 Climbing Fort Worth Center
Sun 04:02:25 PM 34.2931 -96.2394 35° Northeast 432 497 29,700 1,300 Climbing Fort Worth Center
Sun 04:03:25 PM 34.3967 -96.1578 33° Northeast 437 503 30,700 650 Climbing Fort Worth Center
Sun 04:04:25 PM 34.4981 -96.0706 35° Northeast 437 503 31,000 150 Climbing Fort Worth Center
Sun 04:05:25 PM 34.6014 -95.9881 33° Northeast 437 503 31,000  Level Fort Worth Center
Sun 04:06:25 PM 34.7025 -95.9006 35° Northeast 437 503 31,000  Level Fort Worth Center
Sun 04:07:25 PM 34.8058 -95.8153 34° Northeast 442 509 31,000  Level Fort Worth Center
Sun 04:08:25 PM 34.8986 -95.7375 35° Northeast 442 509 31,000  Level Fort Worth Center
Sun 04:09:25 PM 34.9994 -95.6419 38° Northeast 447 514 31,000  Level Fort Worth Center
Sun 04:10:25 PM 35.0983 -95.5483 38° Northeast 447 514 31,000  Level Fort Worth Center
Sun 04:11:25 PM 35.1969 -95.4547 38° Northeast 447 514 31,000  Level Fort Worth Center
Sun 04:12:25 PM 35.2956 -95.3608 38° Northeast 447 514 31,000  Level Fort Worth Center
Sun 04:12:44 PM 35.3361 -95.3253 36° Northeast 450 518 31,000  Level Memphis Center
Sun 04:13:44 PM 35.4336 -95.2317 38° Northeast 462 532 31,000  Level Memphis Center
Sun 04:14:44 PM 35.5311 -95.1378 38° Northeast 457 526 31,000  Level Memphis Center
Sun 04:15:44 PM 35.6306 -95.0414 38° Northeast 451 519 31,000  Level Memphis Center
Sun 04:16:07 PM 35.6522 -95.0197 39° Northeast 452 520 31,000  Level Kansas City Center
Sun 04:17:10 PM 35.7700 -94.9061 38° Northeast 451 519 31,000  Level Kansas City Center
Sun 04:17:44 PM 35.8253 -94.8503 39° Northeast 451 519 31,000  Level Memphis Center
Sun 04:18:44 PM 35.9247 -94.7556 38° Northeast 445 512 31,000  Level Memphis Center
Sun 04:19:45 PM 36.0239 -94.6608 38° Northeast 445 512 31,000  Level Memphis Center
Sun 04:20:44 PM 36.1211 -94.5658 38° Northeast 445 512 31,000  Level Memphis Center
Sun 04:21:19 PM 36.1622 -94.5242 39° Northeast 450 518 31,000  Level Kansas City Center
Sun 04:22:20 PM 36.2594 -94.4297 38° Northeast 449 517 31,000  Level Kansas City Center
Sun 04:23:23 PM 36.3758 -94.3144 39° Northeast 447 514 31,000  Level Kansas City Center
Sun 04:24:24 PM 36.4733 -94.2192 38° Northeast 447 514 31,000  Level Kansas City Center
Sun 04:25:25 PM 36.5714 -94.1211 39° Northeast 450 518 31,000  Level Kansas City Center
Sun 04:26:29 PM 36.6711 -94.0225 38° Northeast 455 524 31,000  Level Kansas City Center
Sun 04:27:29 PM 36.7708 -93.9247 38° Northeast 456 525 31,000  Level Kansas City Center
Sun 04:28:31 PM 36.8700 -93.8247 39° Northeast 457 526 31,000  Level Kansas City Center
Sun 04:29:35 PM 36.9797 -93.7119 39° Northeast 449 517 31,000  Level Kansas City Center
Sun 04:30:36 PM 37.0769 -93.6133 39° Northeast 447 514 31,000  Level Kansas City Center
Sun 04:31:39 PM 37.1761 -93.5114 39° Northeast 455 524 31,000  Level Kansas City Center
Sun 04:32:40 PM 37.2789 -93.4131 37° Northeast 460 529 31,000  Level Kansas City Center
Sun 04:33:41 PM 37.3789 -93.3125 39° Northeast 460 529 31,000  Level Kansas City Center
Sun 04:34:45 PM 37.5033 -93.1950 37° Northeast 462 532 31,000  Level Kansas City Center
Sun 04:35:46 PM 37.6094 -93.0981 36° Northeast 466 536 31,000  Level Kansas City Center
Sun 04:36:47 PM 37.7144 -92.9994 37° Northeast 469 540 31,000  Level Kansas City Center
Sun 04:37:51 PM 37.8194 -92.9011 36° Northeast 467 537 31,000  Level Kansas City Center
Sun 04:38:52 PM 37.9256 -92.8033 36° Northeast 467 537 31,000  Level Kansas City Center
Sun 04:39:55 PM 38.0433 -92.6919 37° Northeast 471 542 31,000  Level Kansas City Center
Sun 04:40:57 PM 38.1508 -92.5922 36° Northeast 477 549 31,000  Level Kansas City Center
Sun 04:41:57 PM 38.2525 -92.4964 36° Northeast 484 557 31,000  Level Kansas City Center
Sun 04:43:01 PM 38.3625 -92.3911 37° Northeast 487 560 31,000  Level Kansas City Center
Sun 04:44:02 PM 38.4950 -92.2653 37° Northeast 490 564 31,000  Level Kansas City Center
Sun 04:45:05 PM 38.6058 -92.1592 37° Northeast 491 565 31,000  Level Kansas City Center
Sun 04:46:07 PM 38.7186 -92.0506 37° Northeast 501 577 31,000  Level Kansas City Center
Sun 04:47:08 PM 38.8322 -91.9408 37° Northeast 506 582 31,000  Level Kansas City Center
Sun 04:48:12 PM 38.9478 -91.8283 37° Northeast 515 593 31,000  Level Kansas City Center
Sun 04:49:13 PM 39.0636 -91.7164 37° Northeast 517 595 31,000  Level Kansas City Center
Sun 04:50:17 PM 39.1817 -91.5997 37° Northeast 518 596 31,000  Level Kansas City Center
Sun 04:51:17 PM 39.2986 -91.4861 37° Northeast 522 601 31,000  Level Kansas City Center
Sun 04:52:18 PM 39.4158 -91.3708 37° Northeast 525 604 31,000  Level Kansas City Center
Sun 04:53:22 PM 39.5569 -91.2308 37° Northeast 529 609 31,000  Level Kansas City Center
Sun 04:54:23 PM 39.6761 -91.1122 37° Northeast 534 615 31,000  Level Kansas City Center
Sun 04:55:23 PM 39.7986 -90.9883 38° Northeast 536 617 31,000  Level Kansas City Center
Sun 04:56:28 PM 39.9078 -90.8808 37° Northeast 533 613 31,000  Level Kansas City Center
Sun 04:57:28 PM 40.0250 -90.7617 38° Northeast 534 615 31,000  Level Kansas City Center
Sun 04:58:32 PM 40.1406 -90.6414 38° Northeast 531 611 31,000  Level Kansas City Center
Sun 04:59:32 PM 40.2811 -90.5019 37° Northeast 529 609 31,000  Level Kansas City Center
Sun 05:00:30 PM 40.3758 -90.3633 48° Northeast 513 590 31,000  Level Chicago Center
Sun 05:00:36 PM 40.3758 -90.3633 48° Northeast 514 592 31,000  Level Kansas City Center
Sun 05:01:32 PM 40.4692 -90.2217 49° Northeast 514 592 31,000 -305 Level Chicago Center
Sun 05:02:34 PM 40.5547 -90.0922 49° Northeast 511 588 30,400 -816 Descending Chicago Center
Sun 05:03:37 PM 40.6647 -89.9253 49° Northeast 507 583 29,300 -1,344 Descending Chicago Center
Sun 05:04:39 PM 40.7503 -89.7869 51° Northeast 493 567 27,600 -1,839 Descending Chicago Center
Sun 05:05:41 PM 40.8389 -89.6517 49° Northeast 490 564 25,500 -1,452 Descending Chicago Center
Sun 05:06:43 PM 40.9300 -89.5194 48° Northeast 490 564 24,600 -726 Descending Chicago Center
Sun 05:07:45 PM 41.0175 -89.3836 49° Northeast 489 563 24,000 -1,355 Descending Chicago Center
Sun 05:08:47 PM 41.1028 -89.2539 49° Northeast 471 542 21,800 -2,565 Descending Chicago Center
Sun 05:09:49 PM 41.1992 -89.1025 50° Northeast 456 525 18,700 -2,661 Descending Chicago Center
Sun 05:10:51 PM 41.2767 -88.9806 50° Northeast 434 499 16,300 -2,565 Descending Chicago Center
Sun 05:11:53 PM 41.3514 -88.8611 50° Northeast 424 488 13,400 -2,516 Descending Chicago Center
Sun 05:12:55 PM 41.4242 -88.7456 50° Northeast 411 473 11,100 -1,210 Descending Chicago Center
Sun 05:13:57 PM 41.4911 -88.6419 49° Northeast 373 429 10,900 -97 Descending Chicago Center
Sun 05:14:59 PM 41.5572 -88.5361 50° Northeast 313 360 10,900 -726 Level Chicago Center
Sun 05:16:01 PM 41.6131 -88.4475 50° Northeast 310 357 9,400 -1,200 Descending Chicago Center
Sun 05:17:04 PM 41.6681 -88.3592 50° Northeast 308 354 8,400 -672 Descending Chicago Center
Sun 05:18:06 PM 41.7436 -88.3158 23° Northeast 309 356 8,000 -919 Descending Chicago Center
Sun 05:19:08 PM 41.8253 -88.2867 15° North 307 353 6,500 -1,452 Descending Chicago Center
Sun 05:20:10 PM 41.9056 -88.2669 10° North 295 339 5,000 -1,210 Descending Chicago Center
Sun 05:21:12 PM 41.9672 -88.1831 45° Northeast 278 320 4,000 -919 Descending Chicago Center
Sun 05:22:14 PM 41.9703 -88.0892 87° East 264 304 3,100 -1,098 Descending Chicago Center
Sun 05:22:34 PM 41.9667 -88.0500 97° East 223 257 2,500 -1,200 Descending Chicago TRACON
Sun 05:23:34 PM 41.9667 -87.9833 90° East 170 196 1,500 -895 Descending Chicago TRACON
Sun 05:24:28 PM 41.9667 -87.9333 90° East 144 166 800 -778 Descending Chicago TRACON
Sun 05:26:00 PM 41.9667 -87.9000 37° Northeast  Level FlightAware Approximate

Login

Don't have an account? Register now (free) for customized features, flight alerts, and more!